Whitetop, Virginia
Current Conditions -  °F | °C
As of 5:55 AM on Monday 20 Oct 2014 (Local Time) from KGEV Reporting Station
Clear Clear  
Wind Chill: 44°   Ceiling: Unl
Heat Index: 44°   Visibility: 10mi
Dew Point: 36°   Wind: 3mph
Humidity: 73%   Direction: 160°SSE
Pressure: 30.1"   Gusts: NA
Location:  36.6°N, 81.63°W
Report Text: KGEV 200955Z AUTO 16003KT 10SM CLR 07/02 A3010 RMK AO2 T00680023
Loading
Personal Weather Stations






























Interactive Weather Map
Tropical Storm Tracking
New forecast layout! Learn more

10-Day Weather Forecast

Advertisements
Track Severe Weather on mobile